createdAt,value
2019-04-13T00:00:38.993Z,3.12
2019-04-13T00:03:08.514Z,3.18
2019-04-13T00:05:56.344Z,3.19
2019-04-13T00:08:30.053Z,3.16
2019-04-13T00:11:04.089Z,3.09
2019-04-13T00:13:33.583Z,3.07
2019-04-13T00:16:03.522Z,3.08
2019-04-13T00:18:32.979Z,3.10
2019-04-13T00:21:02.443Z,3.09
2019-04-13T00:23:32.139Z,3.07
2019-04-13T00:26:01.600Z,3.06
2019-04-13T00:28:31.133Z,3.08
2019-04-13T00:31:00.608Z,3.04
2019-04-13T00:33:30.447Z,3.05
2019-04-13T00:35:59.916Z,3.07
2019-04-13T00:38:29.456Z,3.07
2019-04-13T00:40:58.916Z,3.07
2019-04-13T00:43:28.369Z,3.06
2019-04-13T00:45:57.842Z,3.06
2019-04-13T00:48:27.296Z,3.07
2019-04-13T00:50:56.757Z,3.09
2019-04-13T00:53:26.211Z,3.08
2019-04-13T00:55:55.682Z,3.05
2019-04-13T00:58:25.202Z,3.05
2019-04-13T01:00:54.716Z,3.00
2019-04-13T01:03:24.166Z,3.01
2019-04-13T01:05:54.023Z,2.98
2019-04-13T01:08:23.661Z,2.97
2019-04-13T01:10:53.401Z,2.99
2019-04-13T01:13:23.246Z,3.02
2019-04-13T01:15:53.010Z,3.09
2019-04-13T01:18:22.837Z,3.05
2019-04-13T01:20:52.877Z,3.04
2019-04-13T01:23:22.650Z,3.04
2019-04-13T01:25:52.463Z,3.06
2019-04-13T01:28:22.080Z,3.04
2019-04-13T01:30:51.933Z,3.04
2019-04-13T01:33:21.564Z,2.99
2019-04-13T01:35:51.664Z,2.99
2019-04-13T01:38:21.696Z,3.00
2019-04-13T01:40:51.427Z,3.03
2019-04-13T01:43:21.071Z,3.00
2019-04-13T01:45:50.610Z,2.99
2019-04-13T01:48:20.134Z,3.02
2019-04-13T01:50:50.224Z,3.01
2019-04-13T01:53:19.674Z,3.00
2019-04-13T01:55:49.206Z,3.06
2019-04-13T01:58:19.058Z,3.06
2019-04-13T02:00:59.440Z,3.11
2019-04-13T02:03:30.043Z,3.07
2019-04-13T02:06:01.150Z,3.04
2019-04-13T02:08:38.490Z,3.01
2019-04-13T02:11:15.611Z,3.00
2019-04-13T02:13:45.146Z,2.96
2019-04-13T02:16:14.998Z,2.93
2019-04-13T02:18:44.914Z,2.91
2019-04-13T02:21:14.445Z,2.91
2019-04-13T02:23:44.373Z,2.85
2019-04-13T02:26:13.845Z,2.83
2019-04-13T02:28:43.318Z,2.84
2019-04-13T02:31:12.798Z,2.87
2019-04-13T02:33:42.260Z,2.86
2019-04-13T02:36:11.737Z,2.85
2019-04-13T02:38:41.197Z,2.87
2019-04-13T02:41:12.948Z,2.88
2019-04-13T02:43:42.449Z,2.94
2019-04-13T02:46:13.929Z,2.95
2019-04-13T02:48:43.414Z,2.92
2019-04-13T02:51:12.909Z,2.92
2019-04-13T02:53:42.367Z,2.87
2019-04-13T02:56:11.846Z,2.87
2019-04-13T02:58:41.325Z,2.87
2019-04-13T03:01:10.810Z,2.88
2019-04-13T03:03:40.283Z,2.89
2019-04-13T03:06:09.924Z,2.86
2019-04-13T03:08:39.378Z,2.84
2019-04-13T03:11:09.147Z,2.83
2019-04-13T03:13:38.595Z,2.83
2019-04-13T03:16:25.879Z,2.83
2019-04-13T03:19:08.936Z,2.83
2019-04-13T03:21:38.416Z,2.81
2019-04-13T03:24:07.885Z,2.85
2019-04-13T03:26:37.615Z,2.81
2019-04-13T03:29:07.243Z,2.79
2019-04-13T03:31:37.051Z,2.80
2019-04-13T03:34:06.500Z,2.84
2019-04-13T03:36:35.995Z,2.79
2019-04-13T03:39:07.897Z,2.74
2019-04-13T03:41:37.834Z,2.69
2019-04-13T03:44:07.761Z,2.71
2019-04-13T03:46:37.247Z,2.70
2019-04-13T03:49:06.705Z,2.66
2019-04-13T03:51:36.176Z,2.65
2019-04-13T03:54:06.084Z,2.68
2019-04-13T03:56:36.099Z,2.71
2019-04-13T03:59:05.544Z,2.70
2019-04-13T04:01:35.170Z,2.71
2019-04-13T04:04:04.698Z,2.71
2019-04-13T04:06:34.171Z,2.71
2019-04-13T04:09:05.369Z,2.69
2019-04-13T04:11:35.598Z,2.69
2019-04-13T04:14:05.083Z,2.68
2019-04-13T04:16:35.129Z,2.68
2019-04-13T04:19:04.582Z,2.70
2019-04-13T04:21:34.054Z,2.67
2019-04-13T04:24:03.520Z,2.70
2019-04-13T04:26:33.015Z,2.68
2019-04-13T04:29:02.457Z,2.63
2019-04-13T04:31:31.928Z,2.65
2019-04-13T04:34:01.385Z,2.66
2019-04-13T04:36:30.844Z,2.68
2019-04-13T04:39:00.324Z,2.67
2019-04-13T04:41:29.965Z,2.68
2019-04-13T04:43:59.428Z,2.66
2019-04-13T04:46:29.267Z,2.78
2019-04-13T04:48:59.093Z,2.71
2019-04-13T04:51:28.627Z,2.77
2019-04-13T04:54:00.955Z,2.77
2019-04-13T04:56:30.427Z,2.78
2019-04-13T04:59:00.078Z,2.79
2019-04-13T05:01:29.542Z,2.84
2019-04-13T05:03:59.094Z,2.87
2019-04-13T05:06:35.883Z,2.92
2019-04-13T05:08:59.781Z,2.96
2019-04-13T05:11:29.248Z,3.01
2019-04-13T05:13:58.699Z,3.05
2019-04-13T05:16:28.172Z,3.01
2019-04-13T05:18:57.656Z,3.05
2019-04-13T05:21:27.141Z,2.99
2019-04-13T05:23:56.876Z,3.03
2019-04-13T05:26:26.446Z,3.04
2019-04-13T05:28:55.930Z,3.16
2019-04-13T05:31:25.393Z,3.26
2019-04-13T05:33:54.862Z,3.24
2019-04-13T05:36:24.340Z,3.40
2019-04-13T05:38:53.785Z,3.41
2019-04-13T05:41:23.266Z,3.50
2019-04-13T05:43:52.741Z,3.58
2019-04-13T05:46:22.772Z,3.61
2019-04-13T05:48:52.254Z,3.48
2019-04-13T05:51:21.727Z,3.71
2019-04-13T05:53:51.191Z,3.77
2019-04-13T05:56:20.656Z,3.90
2019-04-13T05:59:02.406Z,3.94
2019-04-13T06:01:21.295Z,3.92
2019-04-13T06:03:53.035Z,4.01
2019-04-13T06:06:22.201Z,4.01
2019-04-13T06:08:51.665Z,4.13
2019-04-13T06:11:21.120Z,4.16
2019-04-13T06:13:50.584Z,4.31
2019-04-13T06:16:20.314Z,4.29
2019-04-13T06:18:51.820Z,4.48
2019-04-13T06:21:20.938Z,4.46
2019-04-13T06:23:50.781Z,4.51
2019-04-13T06:26:20.339Z,4.65
2019-04-13T06:28:49.800Z,4.75
2019-04-13T06:31:23.389Z,5.16
2019-04-13T06:34:03.006Z,5.26
2019-04-13T06:36:32.479Z,5.07
2019-04-13T06:39:01.943Z,5.34
2019-04-13T06:41:34.602Z,5.62
2019-04-13T06:44:03.054Z,5.71
2019-04-13T06:46:32.892Z,5.68
2019-04-13T06:49:02.388Z,5.43
2019-04-13T06:51:31.868Z,5.35
2019-04-13T06:54:01.341Z,5.08
2019-04-13T06:56:31.151Z,4.98
2019-04-13T06:59:00.669Z,5.33
2019-04-13T07:01:30.140Z,5.64
2019-04-13T07:03:59.613Z,5.93
2019-04-13T07:06:31.945Z,5.53
2019-04-13T07:09:18.511Z,4.79
2019-04-13T07:11:55.963Z,4.80
2019-04-13T07:14:23.988Z,5.49
2019-04-13T07:16:55.066Z,5.72
2019-04-13T07:19:25.071Z,6.00
2019-04-13T07:21:54.905Z,6.32
2019-04-13T07:24:28.371Z,5.90
2019-04-13T07:26:55.884Z,5.90
2019-04-13T07:29:25.367Z,6.03
2019-04-13T07:31:54.821Z,6.61
2019-04-13T07:34:24.301Z,6.96
2019-04-13T07:36:53.826Z,7.61
2019-04-13T07:39:23.284Z,7.68
2019-04-13T07:41:52.748Z,8.00
2019-04-13T07:44:23.844Z,8.16
2019-04-13T07:47:07.194Z,7.53
2019-04-13T07:49:55.281Z,7.34
2019-04-13T07:52:29.805Z,7.72
2019-04-13T07:54:59.771Z,8.17
2019-04-13T07:57:29.247Z,8.07
2019-04-13T07:59:58.707Z,6.99
2019-04-13T08:02:28.192Z,6.91
2019-04-13T08:04:57.671Z,6.92
2019-04-13T08:07:27.295Z,7.23
2019-04-13T08:09:56.762Z,7.82
2019-04-13T08:12:26.578Z,8.86
2019-04-13T08:14:56.036Z,8.87
2019-04-13T08:17:27.145Z,9.21
2019-04-13T08:19:58.235Z,7.97
2019-04-13T08:22:27.990Z,8.17
2019-04-13T08:24:57.710Z,8.27
2019-04-13T08:27:27.234Z,8.81
2019-04-13T08:29:57.021Z,8.76
2019-04-13T08:32:29.431Z,8.91
2019-04-13T08:34:59.874Z,8.13
2019-04-13T08:37:28.865Z,9.34
2019-04-13T08:40:02.630Z,9.15
2019-04-13T08:42:29.662Z,9.89
2019-04-13T08:44:59.110Z,8.74
2019-04-13T08:47:28.645Z,8.48
2019-04-13T08:49:58.118Z,7.91
2019-04-13T08:52:27.585Z,7.39
2019-04-13T08:54:57.218Z,7.12
2019-04-13T08:57:26.682Z,7.37
2019-04-13T08:59:56.159Z,8.01
2019-04-13T09:02:25.623Z,7.67
2019-04-13T09:04:55.110Z,8.56
2019-04-13T09:07:24.564Z,8.80
2019-04-13T09:09:54.401Z,8.62
2019-04-13T09:12:24.687Z,9.31
2019-04-13T09:14:58.143Z,10.08
2019-04-13T09:17:27.764Z,10.19
2019-04-13T09:20:03.647Z,8.83
2019-04-13T09:22:33.533Z,9.02
2019-04-13T09:25:03.547Z,9.53
2019-04-13T09:27:35.283Z,9.25
2019-04-13T09:30:05.799Z,8.75
2019-04-13T09:32:35.306Z,9.49
2019-04-13T09:35:05.550Z,10.18
2019-04-13T09:37:35.128Z,9.87
2019-04-13T09:40:07.392Z,9.53
2019-04-13T09:42:37.093Z,10.48
2019-04-13T09:45:06.911Z,10.40
2019-04-13T09:47:36.368Z,10.42
2019-04-13T09:50:06.131Z,10.82
2019-04-13T09:52:35.603Z,10.00
2019-04-13T09:55:05.852Z,10.53
2019-04-13T09:57:35.319Z,10.71
2019-04-13T10:00:07.228Z,10.89
2019-04-13T10:02:36.872Z,11.27
2019-04-13T10:05:07.318Z,11.48
2019-04-13T10:07:41.282Z,10.42
2019-04-13T10:10:12.498Z,12.09
2019-04-13T10:12:47.597Z,11.68
2019-04-13T10:15:24.432Z,12.28
2019-04-13T10:17:55.565Z,11.45
2019-04-13T10:20:25.064Z,11.45
2019-04-13T10:22:55.859Z,12.31
2019-04-13T10:25:25.951Z,11.80
2019-04-13T10:27:55.414Z,12.05
2019-04-13T10:30:24.921Z,11.25
2019-04-13T10:32:54.388Z,10.63
2019-04-13T10:35:23.879Z,11.28
2019-04-13T10:37:54.861Z,11.38
2019-04-13T10:40:24.400Z,11.25
2019-04-13T10:42:53.871Z,11.17
2019-04-13T10:45:24.990Z,11.04
2019-04-13T10:48:01.850Z,10.90
2019-04-13T10:50:35.363Z,10.35
2019-04-13T10:53:04.888Z,11.08
2019-04-13T10:55:34.369Z,10.84
2019-04-13T10:58:03.830Z,9.19
2019-04-13T11:00:33.391Z,8.63
2019-04-13T11:03:03.357Z,9.08
2019-04-13T11:05:32.871Z,9.66
2019-04-13T11:08:02.366Z,10.46
2019-04-13T11:10:32.355Z,10.80
2019-04-13T11:13:02.996Z,10.71
2019-04-13T11:15:33.715Z,10.68
2019-04-13T11:18:04.080Z,10.71
2019-04-13T11:20:33.665Z,10.70
2019-04-13T11:23:03.475Z,11.32
2019-04-13T11:25:33.489Z,11.07
2019-04-13T11:28:07.333Z,10.62
2019-04-13T11:30:34.137Z,10.10
2019-04-13T11:33:03.771Z,11.10
2019-04-13T11:35:35.479Z,10.97
2019-04-13T11:38:04.571Z,9.95
2019-04-13T11:40:34.105Z,9.72
2019-04-13T11:43:21.702Z,10.04
2019-04-13T11:46:04.889Z,9.62
2019-04-13T11:48:38.780Z,9.34
2019-04-13T11:51:10.233Z,9.12
2019-04-13T11:53:39.721Z,9.02
2019-04-13T11:56:09.272Z,8.98
2019-04-13T11:58:38.910Z,9.73
2019-04-13T12:01:13.104Z,10.12
2019-04-13T12:03:50.466Z,9.52
2019-04-13T12:06:21.629Z,9.56
2019-04-13T12:08:59.255Z,8.77
2019-04-13T12:11:46.822Z,9.31
2019-04-13T12:14:18.203Z,9.34
2019-04-13T12:16:55.265Z,9.08
2019-04-13T12:19:28.907Z,8.88
2019-04-13T12:22:00.207Z,8.85
2019-04-13T12:24:29.732Z,8.57
2019-04-13T12:26:59.204Z,8.86
2019-04-13T12:29:28.767Z,9.05
2019-04-13T12:31:58.316Z,9.23
2019-04-13T12:34:27.794Z,9.42
2019-04-13T12:36:57.278Z,9.57
2019-04-13T12:39:27.122Z,9.42
2019-04-13T12:41:58.314Z,9.19
2019-04-13T12:44:37.063Z,8.97
2019-04-13T12:46:59.756Z,8.43
2019-04-13T12:49:29.273Z,8.71
2019-04-13T12:51:59.167Z,8.78
2019-04-13T12:54:29.433Z,8.32
2019-04-13T12:56:59.086Z,8.42
2019-04-13T12:59:28.583Z,8.33
2019-04-13T13:01:59.831Z,8.80
2019-04-13T13:04:30.939Z,8.85
2019-04-13T13:07:00.413Z,9.07
2019-04-13T13:09:29.979Z,9.03
2019-04-13T13:11:59.562Z,8.80
2019-04-13T13:14:32.473Z,9.19
2019-04-13T13:17:00.782Z,9.18
2019-04-13T13:19:30.310Z,9.23
2019-04-13T13:21:59.854Z,9.14
2019-04-13T13:24:29.648Z,9.36
2019-04-13T13:27:02.061Z,8.78
2019-04-13T13:29:30.516Z,9.19
2019-04-13T13:31:59.972Z,9.18
2019-04-13T13:34:29.468Z,9.26
2019-04-13T13:36:58.984Z,9.37
2019-04-13T13:39:28.457Z,9.30
2019-04-13T13:41:57.924Z,9.52
2019-04-13T13:44:27.660Z,9.13
2019-04-13T13:46:57.492Z,9.37
2019-04-13T13:49:27.072Z,9.17
2019-04-13T13:52:01.062Z,9.63
2019-04-13T13:54:27.691Z,9.36
2019-04-13T13:56:57.314Z,9.13
2019-04-13T13:59:26.815Z,8.92
2019-04-13T14:02:14.442Z,8.96
2019-04-13T14:04:44.137Z,8.81
2019-04-13T14:07:13.661Z,8.34
2019-04-13T14:09:44.838Z,8.31
2019-04-13T14:12:14.399Z,8.77
2019-04-13T14:14:43.935Z,9.13
2019-04-13T14:17:13.654Z,9.25
2019-04-13T14:19:43.213Z,9.21
2019-04-13T14:22:12.667Z,9.44
2019-04-13T14:24:42.342Z,9.12
2019-04-13T14:27:11.794Z,8.77
2019-04-13T14:29:42.359Z,9.13
2019-04-13T14:32:12.485Z,9.47
2019-04-13T14:34:41.988Z,9.52
2019-04-13T14:37:13.110Z,9.67
2019-04-13T14:39:42.579Z,9.49
2019-04-13T14:42:12.835Z,9.13
2019-04-13T14:44:43.198Z,9.48
2019-04-13T14:47:12.697Z,9.47
2019-04-13T14:49:42.168Z,9.18
2019-04-13T14:52:11.629Z,8.76
2019-04-13T14:54:41.113Z,8.36
2019-04-13T14:57:10.574Z,8.15
2019-04-13T14:59:40.031Z,7.83
2019-04-13T15:02:09.772Z,8.03
2019-04-13T15:04:40.998Z,8.13
2019-04-13T15:07:10.948Z,8.23
2019-04-13T15:09:40.409Z,8.39
2019-04-13T15:12:11.865Z,8.35
2019-04-13T15:14:41.545Z,8.14
2019-04-13T15:17:11.000Z,8.25
2019-04-13T15:19:53.090Z,8.20
2019-04-13T15:22:14.766Z,8.23
2019-04-13T15:24:43.522Z,8.01
2019-04-13T15:27:12.960Z,8.12
2019-04-13T15:29:43.615Z,8.35
2019-04-13T15:32:13.147Z,8.31
2019-04-13T15:34:42.756Z,8.14
2019-04-13T15:37:12.820Z,8.35
2019-04-13T15:39:46.671Z,8.16
2019-04-13T15:42:19.104Z,8.17
2019-04-13T15:44:48.283Z,8.22
2019-04-13T15:47:19.175Z,8.24
2019-04-13T15:49:48.270Z,7.72
2019-04-13T15:52:17.933Z,8.02
2019-04-13T15:54:47.502Z,8.11
2019-04-13T15:57:18.023Z,8.05
2019-04-13T15:59:47.588Z,8.01
2019-04-13T16:02:17.107Z,7.95
2019-04-13T16:04:47.537Z,7.91
2019-04-13T16:07:18.192Z,7.76
2019-04-13T16:10:07.561Z,7.95
2019-04-13T16:12:42.828Z,7.78
2019-04-13T16:15:12.407Z,7.68
2019-04-13T16:17:42.278Z,7.68
2019-04-13T16:20:11.903Z,7.76
2019-04-13T16:22:41.372Z,7.68
2019-04-13T16:25:12.025Z,7.56
2019-04-13T16:27:49.150Z,7.65
2019-04-13T16:30:26.187Z,7.70
2019-04-13T16:33:09.547Z,7.82
2019-04-13T16:35:53.792Z,7.72
2019-04-13T16:38:24.248Z,7.55
2019-04-13T16:40:54.301Z,7.38
2019-04-13T16:43:26.589Z,7.47
2019-04-13T16:46:03.639Z,7.26
2019-04-13T16:48:44.837Z,7.32
2019-04-13T16:51:21.890Z,7.36
2019-04-13T16:54:08.467Z,7.37
2019-04-13T16:56:39.616Z,7.22
2019-04-13T16:59:16.381Z,7.27
2019-04-13T17:01:48.155Z,7.13
2019-04-13T17:04:34.045Z,7.20
2019-04-13T17:07:04.837Z,7.25
2019-04-13T17:09:35.003Z,7.31
2019-04-13T17:12:17.109Z,7.18
2019-04-13T17:14:36.989Z,7.15
2019-04-13T17:17:07.070Z,7.05
2019-04-13T17:19:41.102Z,7.01
2019-04-13T17:22:30.474Z,6.93
2019-04-13T17:25:05.558Z,6.83
2019-04-13T17:27:40.148Z,6.68
2019-04-13T17:30:28.256Z,6.61
2019-04-13T17:32:59.366Z,6.58
2019-04-13T17:35:29.522Z,6.48
2019-04-13T17:37:59.158Z,6.43
2019-04-13T17:40:30.561Z,6.35
2019-04-13T17:43:04.372Z,6.23
2019-04-13T17:45:50.689Z,6.13
2019-04-13T17:48:38.059Z,6.07
2019-04-13T17:51:24.941Z,5.95
2019-04-13T17:53:56.238Z,5.85
2019-04-13T17:56:26.272Z,5.71
2019-04-13T17:59:03.352Z,5.62
2019-04-13T18:01:50.889Z,5.47
2019-04-13T18:04:31.265Z,5.37
2019-04-13T18:07:11.993Z,5.32
2019-04-13T18:09:51.639Z,5.21
2019-04-13T18:12:47.739Z,5.10
2019-04-13T18:15:26.074Z,4.99
2019-04-13T18:17:57.485Z,4.94
2019-04-13T18:20:27.917Z,4.81
2019-04-13T18:22:58.208Z,4.75
2019-04-13T18:25:37.867Z,4.68
2019-04-13T18:27:59.933Z,4.59
2019-04-13T18:30:34.486Z,4.55
2019-04-13T18:33:01.131Z,4.52
2019-04-13T18:35:31.127Z,4.43
2019-04-13T18:38:01.693Z,4.38
2019-04-13T18:40:32.306Z,4.31
2019-04-13T18:43:09.196Z,4.17
2019-04-13T18:45:33.942Z,4.12
2019-04-13T18:48:04.861Z,4.05
2019-04-13T18:50:35.405Z,3.97
2019-04-13T18:53:08.134Z,3.88
2019-04-13T18:55:37.345Z,3.85
2019-04-13T18:58:10.700Z,3.85
2019-04-13T19:00:38.634Z,3.76
2019-04-13T19:03:09.366Z,3.72
2019-04-13T19:05:38.858Z,3.61
2019-04-13T19:08:08.320Z,3.52
2019-04-13T19:10:38.125Z,3.43
2019-04-13T19:13:08.082Z,3.42
2019-04-13T19:15:37.652Z,3.34
2019-04-13T19:18:07.373Z,3.27
2019-04-13T19:20:36.859Z,3.19
2019-04-13T19:23:06.317Z,3.12
2019-04-13T19:25:35.780Z,2.97
2019-04-13T19:28:05.716Z,2.87
2019-04-13T19:30:35.188Z,2.97
2019-04-13T19:33:04.662Z,2.98
2019-04-13T19:35:34.434Z,2.99
2019-04-13T19:38:03.900Z,2.90
2019-04-13T19:40:33.348Z,2.92
2019-04-13T19:43:02.793Z,2.90
2019-04-13T19:45:32.248Z,2.87
2019-04-13T19:48:01.878Z,2.85
2019-04-13T19:50:31.352Z,2.81
2019-04-13T19:53:08.511Z,2.73
2019-04-13T19:55:38.163Z,2.67
2019-04-13T19:58:07.628Z,2.64
2019-04-13T20:00:38.787Z,2.60
2019-04-13T20:03:08.491Z,2.52
2019-04-13T20:05:37.945Z,2.42
2019-04-13T20:08:07.405Z,2.31
2019-04-13T20:10:36.882Z,2.20
2019-04-13T20:13:06.548Z,2.14
2019-04-13T20:15:37.679Z,2.09
2019-04-13T20:18:07.238Z,2.04
2019-04-13T20:20:36.708Z,1.94
2019-04-13T20:23:06.183Z,1.91
2019-04-13T20:25:35.652Z,1.86
2019-04-13T20:28:05.124Z,1.93
2019-04-13T20:30:34.966Z,1.95
2019-04-13T20:33:04.646Z,1.97
2019-04-13T20:35:34.944Z,1.95
2019-04-13T20:38:04.486Z,1.92
2019-04-13T20:40:35.960Z,1.95
2019-04-13T20:43:05.621Z,1.96
2019-04-13T20:45:35.099Z,2.00
2019-04-13T20:48:06.003Z,2.02
2019-04-13T20:50:36.865Z,2.06
2019-04-13T20:53:06.420Z,2.06
2019-04-13T20:55:37.079Z,2.10
2019-04-13T20:58:07.400Z,2.16
2019-04-13T21:00:37.797Z,2.28
2019-04-13T21:03:08.006Z,2.31
2019-04-13T21:05:38.123Z,2.30
2019-04-13T21:08:08.395Z,2.28
2019-04-13T21:10:37.918Z,2.23
2019-04-13T21:13:07.477Z,2.17
2019-04-13T21:15:37.846Z,2.19
2019-04-13T21:18:07.899Z,2.14
2019-04-13T21:20:38.504Z,2.14
2019-04-13T21:23:08.595Z,2.12
2019-04-13T21:25:38.068Z,2.10
2019-04-13T21:28:08.379Z,2.16
2019-04-13T21:30:38.194Z,2.18
2019-04-13T21:33:08.348Z,2.18
2019-04-13T21:35:38.181Z,2.22
2019-04-13T21:38:08.368Z,2.27
2019-04-13T21:40:38.317Z,2.32
2019-04-13T21:43:08.430Z,2.39
2019-04-13T21:45:38.529Z,2.45
2019-04-13T21:48:08.792Z,2.51
2019-04-13T21:50:41.224Z,2.59
2019-04-13T21:53:18.242Z,2.65
2019-04-13T21:55:50.422Z,2.64
2019-04-13T21:58:20.775Z,2.56
2019-04-13T22:01:27.723Z,2.55
2019-04-13T22:03:57.990Z,2.41
2019-04-13T22:06:27.769Z,2.21
2019-04-13T22:08:57.721Z,2.09
2019-04-13T22:11:27.731Z,1.93
2019-04-13T22:13:57.773Z,1.82
2019-04-13T22:16:27.697Z,1.67
2019-04-13T22:18:58.208Z,1.53
2019-04-13T22:21:28.656Z,1.43
2019-04-13T22:23:58.574Z,1.45
2019-04-13T22:26:28.372Z,1.47
2019-04-13T22:29:05.483Z,1.55
2019-04-13T22:31:39.547Z,1.61
2019-04-13T22:34:14.211Z,1.69
2019-04-13T22:36:46.985Z,1.77
2019-04-13T22:39:16.776Z,1.87
2019-04-13T22:41:46.239Z,1.95
2019-04-13T22:44:16.107Z,1.98
2019-04-13T22:46:46.389Z,2.03
2019-04-13T22:49:18.812Z,2.08
2019-04-13T22:52:08.272Z,2.11
2019-04-13T22:54:39.516Z,2.11
2019-04-13T22:57:14.925Z,2.15
2019-04-13T22:59:44.408Z,2.17
2019-04-13T23:02:19.163Z,2.25
2019-04-13T23:04:49.381Z,2.31
2019-04-13T23:07:21.406Z,2.39
2019-04-13T23:09:52.041Z,2.43
2019-04-13T23:12:22.453Z,2.48
2019-04-13T23:15:03.255Z,2.50
2019-04-13T23:17:24.464Z,2.54
2019-04-13T23:19:54.551Z,2.56
2019-04-13T23:22:24.092Z,2.62
2019-04-13T23:24:53.918Z,2.65
2019-04-13T23:27:24.117Z,2.68
2019-04-13T23:29:54.288Z,2.71
2019-04-13T23:32:24.867Z,2.77
2019-04-13T23:34:55.137Z,2.82
2019-04-13T23:37:25.554Z,2.90
2019-04-13T23:39:54.975Z,2.93
2019-04-13T23:42:26.459Z,2.97
2019-04-13T23:45:08.282Z,3.02
2019-04-13T23:47:29.689Z,3.07
2019-04-13T23:50:00.268Z,3.13
2019-04-13T23:52:30.413Z,3.17
2019-04-13T23:55:00.725Z,3.14
2019-04-13T23:57:31.787Z,3.20
